sensor_id;sensor_type;location;lat;lon;timestamp;P1;durP1;ratioP1;P2;durP2;ratioP2
49590;SDS011;35496;-21.974;-46.800;2023-09-19T00:01:08;6.90;;;4.05;;
49590;SDS011;35496;-21.974;-46.800;2023-09-19T00:03:34;4.18;;;3.63;;
49590;SDS011;35496;-21.974;-46.800;2023-09-19T00:06:04;5.45;;;4.32;;
49590;SDS011;35496;-21.974;-46.800;2023-09-19T00:08:33;7.07;;;4.22;;
49590;SDS011;35496;-21.974;-46.800;2023-09-19T00:10:59;14.13;;;5.90;;
49590;SDS011;35496;-21.974;-46.800;2023-09-19T00:13:31;4.65;;;3.97;;
49590;SDS011;35496;-21.974;-46.800;2023-09-19T00:15:57;5.57;;;3.50;;
49590;SDS011;35496;-21.974;-46.800;2023-09-19T00:18:24;9.55;;;3.90;;
49590;SDS011;35496;-21.974;-46.800;2023-09-19T00:20:58;7.07;;;4.60;;
49590;SDS011;35496;-21.974;-46.800;2023-09-19T00:23:24;6.60;;;4.43;;
49590;SDS011;35496;-21.974;-46.800;2023-09-19T00:25:58;12.15;;;4.93;;
49590;SDS011;35496;-21.974;-46.800;2023-09-19T00:28:24;7.32;;;3.63;;
49590;SDS011;35496;-21.974;-46.800;2023-09-19T00:30:50;5.47;;;3.63;;
49590;SDS011;35496;-21.974;-46.800;2023-09-19T00:33:16;5.45;;;3.85;;
49590;SDS011;35496;-21.974;-46.800;2023-09-19T00:35:51;12.40;;;4.60;;
49590;SDS011;35496;-21.974;-46.800;2023-09-19T00:38:17;10.13;;;4.47;;
49590;SDS011;35496;-21.974;-46.800;2023-09-19T00:40:47;11.45;;;4.05;;
49590;SDS011;35496;-21.974;-46.800;2023-09-19T00:43:13;5.35;;;4.35;;
49590;SDS011;35496;-21.974;-46.800;2023-09-19T00:45:39;7.55;;;4.05;;
49590;SDS011;35496;-21.974;-46.800;2023-09-19T00:48:07;7.53;;;5.05;;
49590;SDS011;35496;-21.974;-46.800;2023-09-19T00:50:34;10.05;;;4.53;;
49590;SDS011;35496;-21.974;-46.800;2023-09-19T00:53:02;7.57;;;5.15;;
49590;SDS011;35496;-21.974;-46.800;2023-09-19T00:55:35;15.07;;;4.18;;
49590;SDS011;35496;-21.974;-46.800;2023-09-19T00:58:03;4.60;;;3.42;;
49590;SDS011;35496;-21.974;-46.800;2023-09-19T01:00:31;7.30;;;3.65;;
49590;SDS011;35496;-21.974;-46.800;2023-09-19T01:02:59;8.32;;;4.25;;
49590;SDS011;35496;-21.974;-46.800;2023-09-19T01:05:28;7.97;;;3.58;;
49590;SDS011;35496;-21.974;-46.800;2023-09-19T01:07:57;6.93;;;4.05;;
49590;SDS011;35496;-21.974;-46.800;2023-09-19T01:10:24;8.10;;;4.60;;
49590;SDS011;35496;-21.974;-46.800;2023-09-19T01:20:53;3.78;;;3.45;;
49590;SDS011;35496;-21.974;-46.800;2023-09-19T01:28:53;11.80;;;4.50;;
49590;SDS011;35496;-21.974;-46.800;2023-09-19T01:31:19;6.07;;;3.58;;
49590;SDS011;35496;-21.974;-46.800;2023-09-19T01:33:56;4.25;;;3.85;;
49590;SDS011;35496;-21.974;-46.800;2023-09-19T01:36:29;4.78;;;3.70;;
49590;SDS011;35496;-21.974;-46.800;2023-09-19T01:38:55;5.20;;;4.35;;
49590;SDS011;35496;-21.974;-46.800;2023-09-19T01:41:25;3.60;;;3.30;;
49590;SDS011;35496;-21.974;-46.800;2023-09-19T01:43:51;7.90;;;4.13;;
49590;SDS011;35496;-21.974;-46.800;2023-09-19T01:46:24;8.02;;;4.65;;
49590;SDS011;35496;-21.974;-46.800;2023-09-19T01:54:12;9.55;;;4.20;;
49590;SDS011;35496;-21.974;-46.800;2023-09-19T01:56:50;5.63;;;4.10;;
49590;SDS011;35496;-21.974;-46.800;2023-09-19T01:59:19;7.15;;;4.35;;
49590;SDS011;35496;-21.974;-46.800;2023-09-19T02:01:46;8.07;;;4.10;;
49590;SDS011;35496;-21.974;-46.800;2023-09-19T02:04:13;6.38;;;4.03;;
49590;SDS011;35496;-21.974;-46.800;2023-09-19T02:06:40;4.85;;;3.97;;
49590;SDS011;35496;-21.974;-46.800;2023-09-19T02:09:06;9.30;;;4.13;;
49590;SDS011;35496;-21.974;-46.800;2023-09-19T02:11:35;3.42;;;2.85;;
49590;SDS011;35496;-21.974;-46.800;2023-09-19T02:14:01;6.95;;;4.05;;
49590;SDS011;35496;-21.974;-46.800;2023-09-19T02:16:30;5.53;;;4.40;;
49590;SDS011;35496;-21.974;-46.800;2023-09-19T02:18:56;4.10;;;3.60;;
49590;SDS011;35496;-21.974;-46.800;2023-09-19T02:21:24;5.03;;;3.88;;
49590;SDS011;35496;-21.974;-46.800;2023-09-19T02:23:50;17.08;;;4.25;;
49590;SDS011;35496;-21.974;-46.800;2023-09-19T02:26:17;8.88;;;4.32;;
49590;SDS011;35496;-21.974;-46.800;2023-09-19T02:28:44;5.43;;;4.28;;
49590;SDS011;35496;-21.974;-46.800;2023-09-19T02:31:11;9.68;;;6.05;;
49590;SDS011;35496;-21.974;-46.800;2023-09-19T02:33:37;18.73;;;7.03;;
49590;SDS011;35496;-21.974;-46.800;2023-09-19T02:36:04;6.95;;;4.10;;
49590;SDS011;35496;-21.974;-46.800;2023-09-19T02:38:30;7.15;;;5.03;;
49590;SDS011;35496;-21.974;-46.800;2023-09-19T02:40:56;6.88;;;5.43;;
49590;SDS011;35496;-21.974;-46.800;2023-09-19T02:43:23;6.32;;;4.68;;
49590;SDS011;35496;-21.974;-46.800;2023-09-19T02:45:49;4.47;;;4.05;;
49590;SDS011;35496;-21.974;-46.800;2023-09-19T02:48:16;9.48;;;4.10;;
49590;SDS011;35496;-21.974;-46.800;2023-09-19T02:50:43;5.18;;;3.60;;
49590;SDS011;35496;-21.974;-46.800;2023-09-19T02:53:09;7.18;;;4.57;;
49590;SDS011;35496;-21.974;-46.800;2023-09-19T02:55:38;9.35;;;5.65;;
49590;SDS011;35496;-21.974;-46.800;2023-09-19T02:58:05;7.15;;;4.63;;
49590;SDS011;35496;-21.974;-46.800;2023-09-19T03:00:33;11.95;;;5.18;;
49590;SDS011;35496;-21.974;-46.800;2023-09-19T03:03:00;6.18;;;4.10;;
49590;SDS011;35496;-21.974;-46.800;2023-09-19T03:05:27;7.18;;;2.85;;
49590;SDS011;35496;-21.974;-46.800;2023-09-19T03:07:56;3.55;;;3.25;;
49590;SDS011;35496;-21.974;-46.800;2023-09-19T03:10:23;4.18;;;3.58;;
49590;SDS011;35496;-21.974;-46.800;2023-09-19T03:12:50;4.90;;;4.38;;
49590;SDS011;35496;-21.974;-46.800;2023-09-19T03:15:16;4.18;;;3.78;;
49590;SDS011;35496;-21.974;-46.800;2023-09-19T03:17:44;7.78;;;2.92;;
49590;SDS011;35496;-21.974;-46.800;2023-09-19T03:20:10;4.65;;;3.60;;
49590;SDS011;35496;-21.974;-46.800;2023-09-19T03:22:38;4.63;;;4.25;;
49590;SDS011;35496;-21.974;-46.800;2023-09-19T03:25:05;4.97;;;3.38;;
49590;SDS011;35496;-21.974;-46.800;2023-09-19T03:27:36;3.65;;;3.20;;
49590;SDS011;35496;-21.974;-46.800;2023-09-19T03:30:02;7.90;;;3.75;;
49590;SDS011;35496;-21.974;-46.800;2023-09-19T03:32:33;5.00;;;3.83;;
49590;SDS011;35496;-21.974;-46.800;2023-09-19T03:35:00;5.80;;;3.65;;
49590;SDS011;35496;-21.974;-46.800;2023-09-19T03:37:26;5.00;;;3.22;;
49590;SDS011;35496;-21.974;-46.800;2023-09-19T03:39:52;42.83;;;8.52;;
49590;SDS011;35496;-21.974;-46.800;2023-09-19T03:42:18;5.03;;;3.40;;
49590;SDS011;35496;-21.974;-46.800;2023-09-19T03:47:17;4.35;;;3.67;;
49590;SDS011;35496;-21.974;-46.800;2023-09-19T03:49:44;5.22;;;3.97;;
49590;SDS011;35496;-21.974;-46.800;2023-09-19T03:52:10;9.23;;;3.63;;
49590;SDS011;35496;-21.974;-46.800;2023-09-19T03:54:36;4.22;;;3.83;;
49590;SDS011;35496;-21.974;-46.800;2023-09-19T03:57:03;4.22;;;3.13;;
49590;SDS011;35496;-21.974;-46.800;2023-09-19T03:59:29;10.27;;;4.45;;
49590;SDS011;35496;-21.974;-46.800;2023-09-19T04:01:55;14.07;;;7.05;;
49590;SDS011;35496;-21.974;-46.800;2023-09-19T04:04:22;11.48;;;7.78;;
49590;SDS011;35496;-21.974;-46.800;2023-09-19T04:06:53;9.05;;;6.03;;
49590;SDS011;35496;-21.974;-46.800;2023-09-19T04:09:19;12.38;;;6.57;;
49590;SDS011;35496;-21.974;-46.800;2023-09-19T04:11:52;8.13;;;5.93;;
49590;SDS011;35496;-21.974;-46.800;2023-09-19T04:14:18;11.70;;;6.18;;
49590;SDS011;35496;-21.974;-46.800;2023-09-19T04:16:44;8.90;;;5.72;;
49590;SDS011;35496;-21.974;-46.800;2023-09-19T04:19:10;8.93;;;5.82;;
49590;SDS011;35496;-21.974;-46.800;2023-09-19T04:21:37;14.20;;;6.80;;
49590;SDS011;35496;-21.974;-46.800;2023-09-19T04:24:03;13.30;;;5.50;;
49590;SDS011;35496;-21.974;-46.800;2023-09-19T04:26:29;12.70;;;6.05;;
49590;SDS011;35496;-21.974;-46.800;2023-09-19T04:28:55;10.93;;;6.30;;
49590;SDS011;35496;-21.974;-46.800;2023-09-19T04:31:21;11.70;;;6.70;;
49590;SDS011;35496;-21.974;-46.800;2023-09-19T04:33:47;13.77;;;6.55;;
49590;SDS011;35496;-21.974;-46.800;2023-09-19T04:36:13;12.27;;;5.88;;
49590;SDS011;35496;-21.974;-46.800;2023-09-19T04:38:40;11.23;;;5.45;;
49590;SDS011;35496;-21.974;-46.800;2023-09-19T04:41:06;10.27;;;6.40;;
49590;SDS011;35496;-21.974;-46.800;2023-09-19T04:43:32;8.90;;;5.70;;
49590;SDS011;35496;-21.974;-46.800;2023-09-19T04:45:58;12.77;;;6.03;;
49590;SDS011;35496;-21.974;-46.800;2023-09-19T04:48:26;16.98;;;7.85;;
49590;SDS011;35496;-21.974;-46.800;2023-09-19T04:50:52;12.55;;;7.40;;
49590;SDS011;35496;-21.974;-46.800;2023-09-19T04:53:18;13.32;;;6.95;;
49590;SDS011;35496;-21.974;-46.800;2023-09-19T04:55:54;16.65;;;7.10;;
49590;SDS011;35496;-21.974;-46.800;2023-09-19T04:58:21;13.90;;;7.55;;
49590;SDS011;35496;-21.974;-46.800;2023-09-19T05:00:48;11.63;;;6.78;;
49590;SDS011;35496;-21.974;-46.800;2023-09-19T05:03:16;9.30;;;6.15;;
49590;SDS011;35496;-21.974;-46.800;2023-09-19T05:05:43;8.15;;;6.22;;
49590;SDS011;35496;-21.974;-46.800;2023-09-19T05:08:09;10.02;;;6.28;;
49590;SDS011;35496;-21.974;-46.800;2023-09-19T05:10:35;11.98;;;7.72;;
49590;SDS011;35496;-21.974;-46.800;2023-09-19T05:13:04;14.57;;;7.05;;
49590;SDS011;35496;-21.974;-46.800;2023-09-19T05:15:32;11.30;;;6.30;;
49590;SDS011;35496;-21.974;-46.800;2023-09-19T05:17:58;11.98;;;6.10;;
49590;SDS011;35496;-21.974;-46.800;2023-09-19T05:20:25;8.95;;;5.85;;
49590;SDS011;35496;-21.974;-46.800;2023-09-19T05:23:02;12.48;;;7.00;;
49590;SDS011;35496;-21.974;-46.800;2023-09-19T05:25:31;14.00;;;6.85;;
49590;SDS011;35496;-21.974;-46.800;2023-09-19T05:27:58;10.65;;;5.70;;
49590;SDS011;35496;-21.974;-46.800;2023-09-19T05:30:25;11.55;;;6.97;;
49590;SDS011;35496;-21.974;-46.800;2023-09-19T05:32:53;9.60;;;6.18;;
49590;SDS011;35496;-21.974;-46.800;2023-09-19T05:35:20;12.90;;;5.93;;
49590;SDS011;35496;-21.974;-46.800;2023-09-19T05:37:47;9.38;;;4.97;;
49590;SDS011;35496;-21.974;-46.800;2023-09-19T05:40:19;13.82;;;7.15;;
49590;SDS011;35496;-21.974;-46.800;2023-09-19T05:42:45;9.25;;;5.95;;
49590;SDS011;35496;-21.974;-46.800;2023-09-19T05:45:12;10.55;;;5.88;;
49590;SDS011;35496;-21.974;-46.800;2023-09-19T05:47:39;14.60;;;6.85;;
49590;SDS011;35496;-21.974;-46.800;2023-09-19T05:50:11;10.88;;;6.88;;
49590;SDS011;35496;-21.974;-46.800;2023-09-19T05:52:37;12.63;;;7.18;;
49590;SDS011;35496;-21.974;-46.800;2023-09-19T05:55:06;11.73;;;7.55;;
49590;SDS011;35496;-21.974;-46.800;2023-09-19T05:57:33;17.25;;;7.70;;
49590;SDS011;35496;-21.974;-46.800;2023-09-19T06:00:00;11.90;;;6.43;;
49590;SDS011;35496;-21.974;-46.800;2023-09-19T06:02:26;12.10;;;6.18;;
49590;SDS011;35496;-21.974;-46.800;2023-09-19T06:04:54;7.32;;;5.70;;
49590;SDS011;35496;-21.974;-46.800;2023-09-19T06:07:24;12.60;;;7.00;;
49590;SDS011;35496;-21.974;-46.800;2023-09-19T06:09:52;17.95;;;8.05;;
49590;SDS011;35496;-21.974;-46.800;2023-09-19T06:12:21;28.17;;;8.75;;
49590;SDS011;35496;-21.974;-46.800;2023-09-19T06:14:47;12.00;;;8.38;;
49590;SDS011;35496;-21.974;-46.800;2023-09-19T06:17:14;12.15;;;7.43;;
49590;SDS011;35496;-21.974;-46.800;2023-09-19T06:19:40;14.73;;;7.70;;
49590;SDS011;35496;-21.974;-46.800;2023-09-19T06:22:08;16.67;;;7.93;;
49590;SDS011;35496;-21.974;-46.800;2023-09-19T06:24:35;18.40;;;8.20;;
49590;SDS011;35496;-21.974;-46.800;2023-09-19T06:27:01;11.20;;;7.45;;
49590;SDS011;35496;-21.974;-46.800;2023-09-19T06:29:29;16.17;;;9.07;;
49590;SDS011;35496;-21.974;-46.800;2023-09-19T06:31:55;15.90;;;7.78;;
49590;SDS011;35496;-21.974;-46.800;2023-09-19T06:34:21;9.57;;;5.80;;
49590;SDS011;35496;-21.974;-46.800;2023-09-19T06:36:48;14.48;;;7.00;;
49590;SDS011;35496;-21.974;-46.800;2023-09-19T06:39:14;10.20;;;5.47;;
49590;SDS011;35496;-21.974;-46.800;2023-09-19T06:41:40;8.77;;;6.47;;
49590;SDS011;35496;-21.974;-46.800;2023-09-19T06:44:07;11.73;;;6.78;;
49590;SDS011;35496;-21.974;-46.800;2023-09-19T06:46:33;12.57;;;5.90;;
49590;SDS011;35496;-21.974;-46.800;2023-09-19T06:49:01;7.82;;;5.88;;
49590;SDS011;35496;-21.974;-46.800;2023-09-19T06:51:31;10.50;;;5.53;;
49590;SDS011;35496;-21.974;-46.800;2023-09-19T06:53:58;8.85;;;5.68;;
49590;SDS011;35496;-21.974;-46.800;2023-09-19T06:56:25;10.05;;;4.95;;
49590;SDS011;35496;-21.974;-46.800;2023-09-19T06:58:51;10.68;;;5.43;;
49590;SDS011;35496;-21.974;-46.800;2023-09-19T07:01:17;12.10;;;5.35;;
49590;SDS011;35496;-21.974;-46.800;2023-09-19T07:03:44;16.80;;;5.88;;
49590;SDS011;35496;-21.974;-46.800;2023-09-19T07:06:11;10.60;;;5.85;;
49590;SDS011;35496;-21.974;-46.800;2023-09-19T07:08:37;7.05;;;4.05;;
49590;SDS011;35496;-21.974;-46.800;2023-09-19T07:11:04;15.30;;;6.03;;
49590;SDS011;35496;-21.974;-46.800;2023-09-19T07:13:31;9.93;;;5.32;;
49590;SDS011;35496;-21.974;-46.800;2023-09-19T07:16:01;7.13;;;4.30;;
49590;SDS011;35496;-21.974;-46.800;2023-09-19T07:18:27;12.45;;;6.65;;
49590;SDS011;35496;-21.974;-46.800;2023-09-19T07:20:56;7.70;;;5.22;;
49590;SDS011;35496;-21.974;-46.800;2023-09-19T07:23:26;8.90;;;5.72;;
49590;SDS011;35496;-21.974;-46.800;2023-09-19T07:25:56;10.05;;;5.57;;
49590;SDS011;35496;-21.974;-46.800;2023-09-19T07:28:22;7.13;;;5.03;;
49590;SDS011;35496;-21.974;-46.800;2023-09-19T07:30:48;9.43;;;5.30;;
49590;SDS011;35496;-21.974;-46.800;2023-09-19T07:33:14;9.57;;;4.50;;
49590;SDS011;35496;-21.974;-46.800;2023-09-19T07:35:40;13.25;;;5.63;;
49590;SDS011;35496;-21.974;-46.800;2023-09-19T07:38:06;13.23;;;7.20;;
49590;SDS011;35496;-21.974;-46.800;2023-09-19T07:40:33;9.52;;;6.70;;
49590;SDS011;35496;-21.974;-46.800;2023-09-19T07:42:59;9.82;;;6.47;;
49590;SDS011;35496;-21.974;-46.800;2023-09-19T07:45:30;10.45;;;6.43;;
49590;SDS011;35496;-21.974;-46.800;2023-09-19T07:47:57;6.93;;;5.45;;
49590;SDS011;35496;-21.974;-46.800;2023-09-19T07:50:23;7.70;;;5.82;;
49590;SDS011;35496;-21.974;-46.800;2023-09-19T07:52:49;8.02;;;5.07;;
49590;SDS011;35496;-21.974;-46.800;2023-09-19T07:55:19;8.02;;;5.32;;
49590;SDS011;35496;-21.974;-46.800;2023-09-19T07:57:49;12.43;;;6.72;;
49590;SDS011;35496;-21.974;-46.800;2023-09-19T08:00:15;7.53;;;5.53;;
49590;SDS011;35496;-21.974;-46.800;2023-09-19T08:02:41;9.07;;;5.20;;
49590;SDS011;35496;-21.974;-46.800;2023-09-19T08:05:07;9.57;;;5.45;;
49590;SDS011;35496;-21.974;-46.800;2023-09-19T08:07:37;11.20;;;5.65;;
49590;SDS011;35496;-21.974;-46.800;2023-09-19T08:10:04;9.23;;;5.57;;
49590;SDS011;35496;-21.974;-46.800;2023-09-19T08:12:33;12.27;;;5.78;;
49590;SDS011;35496;-21.974;-46.800;2023-09-19T08:15:03;9.52;;;6.05;;
49590;SDS011;35496;-21.974;-46.800;2023-09-19T08:17:34;10.70;;;4.85;;
49590;SDS011;35496;-21.974;-46.800;2023-09-19T08:20:01;7.43;;;5.07;;
49590;SDS011;35496;-21.974;-46.800;2023-09-19T08:22:28;9.10;;;5.43;;
49590;SDS011;35496;-21.974;-46.800;2023-09-19T08:24:54;8.52;;;4.43;;
49590;SDS011;35496;-21.974;-46.800;2023-09-19T08:27:21;15.45;;;5.78;;
49590;SDS011;35496;-21.974;-46.800;2023-09-19T08:29:52;11.40;;;6.25;;
49590;SDS011;35496;-21.974;-46.800;2023-09-19T08:32:18;7.32;;;4.53;;
49590;SDS011;35496;-21.974;-46.800;2023-09-19T08:34:49;10.50;;;4.82;;
49590;SDS011;35496;-21.974;-46.800;2023-09-19T08:37:15;9.52;;;6.30;;
49590;SDS011;35496;-21.974;-46.800;2023-09-19T08:39:42;13.77;;;6.40;;
49590;SDS011;35496;-21.974;-46.800;2023-09-19T08:42:10;11.77;;;5.35;;
49590;SDS011;35496;-21.974;-46.800;2023-09-19T08:44:38;15.60;;;5.35;;
49590;SDS011;35496;-21.974;-46.800;2023-09-19T08:47:15;24.77;;;7.43;;
49590;SDS011;35496;-21.974;-46.800;2023-09-19T08:55:07;6.03;;;5.50;;
49590;SDS011;35496;-21.974;-46.800;2023-09-19T08:57:37;6.15;;;5.55;;
49590;SDS011;35496;-21.974;-46.800;2023-09-19T09:00:07;7.10;;;5.82;;
49590;SDS011;35496;-21.974;-46.800;2023-09-19T09:02:38;9.40;;;5.72;;
49590;SDS011;35496;-21.974;-46.800;2023-09-19T09:05:11;11.68;;;6.07;;
49590;SDS011;35496;-21.974;-46.800;2023-09-19T09:07:37;15.15;;;7.10;;
49590;SDS011;35496;-21.974;-46.800;2023-09-19T09:10:04;9.25;;;6.43;;
49590;SDS011;35496;-21.974;-46.800;2023-09-19T09:12:30;16.65;;;7.13;;
49590;SDS011;35496;-21.974;-46.800;2023-09-19T09:14:56;14.38;;;7.15;;
49590;SDS011;35496;-21.974;-46.800;2023-09-19T09:17:23;12.10;;;7.28;;
49590;SDS011;35496;-21.974;-46.800;2023-09-19T09:19:53;11.02;;;7.13;;
49590;SDS011;35496;-21.974;-46.800;2023-09-19T09:22:19;14.25;;;6.68;;
49590;SDS011;35496;-21.974;-46.800;2023-09-19T09:24:53;13.82;;;6.97;;
49590;SDS011;35496;-21.974;-46.800;2023-09-19T09:27:26;8.27;;;5.57;;
49590;SDS011;35496;-21.974;-46.800;2023-09-19T09:29:53;13.70;;;7.05;;
49590;SDS011;35496;-21.974;-46.800;2023-09-19T09:32:22;14.10;;;5.93;;
49590;SDS011;35496;-21.974;-46.800;2023-09-19T09:34:50;13.20;;;6.82;;
49590;SDS011;35496;-21.974;-46.800;2023-09-19T09:37:17;8.30;;;6.40;;
49590;SDS011;35496;-21.974;-46.800;2023-09-19T09:39:51;8.90;;;5.68;;
49590;SDS011;35496;-21.974;-46.800;2023-09-19T09:42:29;12.45;;;6.70;;
49590;SDS011;35496;-21.974;-46.800;2023-09-19T09:45:13;18.00;;;7.70;;
49590;SDS011;35496;-21.974;-46.800;2023-09-19T09:47:46;14.35;;;6.53;;
49590;SDS011;35496;-21.974;-46.800;2023-09-19T09:50:27;13.50;;;6.28;;
49590;SDS011;35496;-21.974;-46.800;2023-09-19T09:53:27;11.80;;;6.07;;
49590;SDS011;35496;-21.974;-46.800;2023-09-19T09:56:04;7.43;;;4.63;;
49590;SDS011;35496;-21.974;-46.800;2023-09-19T09:58:51;10.70;;;4.45;;
49590;SDS011;35496;-21.974;-46.800;2023-09-19T10:01:24;7.60;;;5.95;;
49590;SDS011;35496;-21.974;-46.800;2023-09-19T10:04:01;11.98;;;6.10;;
49590;SDS011;35496;-21.974;-46.800;2023-09-19T10:06:39;7.90;;;5.68;;
49590;SDS011;35496;-21.974;-46.800;2023-09-19T10:09:12;14.18;;;6.10;;
49590;SDS011;35496;-21.974;-46.800;2023-09-19T10:11:43;21.77;;;7.65;;
49590;SDS011;35496;-21.974;-46.800;2023-09-19T10:14:12;12.05;;;6.65;;
49590;SDS011;35496;-21.974;-46.800;2023-09-19T10:16:40;17.35;;;7.78;;
49590;SDS011;35496;-21.974;-46.800;2023-09-19T10:19:07;16.15;;;6.93;;
49590;SDS011;35496;-21.974;-46.800;2023-09-19T10:21:34;9.77;;;6.15;;
49590;SDS011;35496;-21.974;-46.800;2023-09-19T10:24:03;14.07;;;7.07;;
49590;SDS011;35496;-21.974;-46.800;2023-09-19T10:26:32;17.15;;;5.85;;
49590;SDS011;35496;-21.974;-46.800;2023-09-19T10:29:01;7.45;;;6.72;;
49590;SDS011;35496;-21.974;-46.800;2023-09-19T10:31:29;7.22;;;5.85;;
49590;SDS011;35496;-21.974;-46.800;2023-09-19T10:33:55;13.32;;;7.05;;
49590;SDS011;35496;-21.974;-46.800;2023-09-19T10:36:25;19.02;;;6.40;;
49590;SDS011;35496;-21.974;-46.800;2023-09-19T10:38:55;14.95;;;6.88;;
49590;SDS011;35496;-21.974;-46.800;2023-09-19T10:41:23;14.90;;;6.43;;
49590;SDS011;35496;-21.974;-46.800;2023-09-19T10:43:50;12.95;;;7.50;;
49590;SDS011;35496;-21.974;-46.800;2023-09-19T10:46:16;14.73;;;6.93;;
49590;SDS011;35496;-21.974;-46.800;2023-09-19T10:48:42;19.55;;;7.20;;
49590;SDS011;35496;-21.974;-46.800;2023-09-19T10:51:21;9.30;;;5.30;;
49590;SDS011;35496;-21.974;-46.800;2023-09-19T10:53:55;14.23;;;4.97;;
49590;SDS011;35496;-21.974;-46.800;2023-09-19T10:56:31;8.48;;;4.40;;
49590;SDS011;35496;-21.974;-46.800;2023-09-19T11:04:29;12.35;;;5.13;;
49590;SDS011;35496;-21.974;-46.800;2023-09-19T11:07:06;8.95;;;3.20;;
49590;SDS011;35496;-21.974;-46.800;2023-09-19T11:09:51;9.50;;;3.97;;
49590;SDS011;35496;-21.974;-46.800;2023-09-19T11:15:01;5.40;;;3.15;;
49590;SDS011;35496;-21.974;-46.800;2023-09-19T11:17:36;6.53;;;4.05;;
49590;SDS011;35496;-21.974;-46.800;2023-09-19T11:30:43;12.45;;;5.45;;
49590;SDS011;35496;-21.974;-46.800;2023-09-19T11:33:22;13.75;;;5.47;;
49590;SDS011;35496;-21.974;-46.800;2023-09-19T11:36:06;12.75;;;4.90;;
49590;SDS011;35496;-21.974;-46.800;2023-09-19T11:43:54;13.30;;;5.80;;
49590;SDS011;35496;-21.974;-46.800;2023-09-19T11:49:27;16.50;;;4.80;;
49590;SDS011;35496;-21.974;-46.800;2023-09-19T11:51:57;15.23;;;5.38;;
49590;SDS011;35496;-21.974;-46.800;2023-09-19T11:54:30;15.75;;;4.13;;
49590;SDS011;35496;-21.974;-46.800;2023-09-19T11:56:59;5.15;;;2.67;;
49590;SDS011;35496;-21.974;-46.800;2023-09-19T11:59:27;11.57;;;3.80;;
49590;SDS011;35496;-21.974;-46.800;2023-09-19T12:07:03;6.80;;;3.58;;
49590;SDS011;35496;-21.974;-46.800;2023-09-19T12:09:31;10.05;;;3.55;;
49590;SDS011;35496;-21.974;-46.800;2023-09-19T12:11:57;5.10;;;3.10;;
49590;SDS011;35496;-21.974;-46.800;2023-09-19T12:14:24;13.05;;;5.18;;
49590;SDS011;35496;-21.974;-46.800;2023-09-19T12:16:54;12.50;;;4.13;;
49590;SDS011;35496;-21.974;-46.800;2023-09-19T12:19:21;17.25;;;3.95;;
49590;SDS011;35496;-21.974;-46.800;2023-09-19T12:21:55;6.18;;;3.08;;
49590;SDS011;35496;-21.974;-46.800;2023-09-19T12:24:24;11.20;;;4.03;;
49590;SDS011;35496;-21.974;-46.800;2023-09-19T12:26:52;8.18;;;3.25;;
49590;SDS011;35496;-21.974;-46.800;2023-09-19T12:29:21;12.73;;;4.47;;
49590;SDS011;35496;-21.974;-46.800;2023-09-19T12:31:51;3.75;;;3.38;;
49590;SDS011;35496;-21.974;-46.800;2023-09-19T12:34:21;5.72;;;3.25;;
49590;SDS011;35496;-21.974;-46.800;2023-09-19T12:36:48;6.00;;;3.03;;
49590;SDS011;35496;-21.974;-46.800;2023-09-19T12:39:24;4.72;;;3.97;;
49590;SDS011;35496;-21.974;-46.800;2023-09-19T12:41:51;14.98;;;5.28;;
49590;SDS011;35496;-21.974;-46.800;2023-09-19T12:44:19;21.77;;;6.68;;
49590;SDS011;35496;-21.974;-46.800;2023-09-19T12:46:45;23.67;;;7.50;;
49590;SDS011;35496;-21.974;-46.800;2023-09-19T12:49:15;20.63;;;6.68;;
49590;SDS011;35496;-21.974;-46.800;2023-09-19T12:51:42;16.08;;;8.00;;
49590;SDS011;35496;-21.974;-46.800;2023-09-19T12:54:09;13.98;;;7.13;;
49590;SDS011;35496;-21.974;-46.800;2023-09-19T12:56:39;16.40;;;8.35;;
49590;SDS011;35496;-21.974;-46.800;2023-09-19T12:59:15;16.02;;;6.32;;
49590;SDS011;35496;-21.974;-46.800;2023-09-19T13:01:42;18.70;;;6.78;;
49590;SDS011;35496;-21.974;-46.800;2023-09-19T13:06:38;21.33;;;7.65;;
49590;SDS011;35496;-21.974;-46.800;2023-09-19T13:09:08;18.75;;;7.18;;
49590;SDS011;35496;-21.974;-46.800;2023-09-19T13:11:36;21.95;;;5.95;;
49590;SDS011;35496;-21.974;-46.800;2023-09-19T13:14:14;21.88;;;6.38;;
49590;SDS011;35496;-21.974;-46.800;2023-09-19T13:22:35;16.30;;;5.97;;
49590;SDS011;35496;-21.974;-46.800;2023-09-19T13:24:50;22.15;;;4.60;;
49590;SDS011;35496;-21.974;-46.800;2023-09-19T13:27:17;6.50;;;5.03;;
49590;SDS011;35496;-21.974;-46.800;2023-09-19T13:29:43;7.85;;;5.13;;
49590;SDS011;35496;-21.974;-46.800;2023-09-19T13:32:09;9.90;;;4.82;;
49590;SDS011;35496;-21.974;-46.800;2023-09-19T13:34:36;12.70;;;5.80;;
49590;SDS011;35496;-21.974;-46.800;2023-09-19T13:37:03;8.60;;;3.80;;
49590;SDS011;35496;-21.974;-46.800;2023-09-19T13:39:30;7.93;;;4.43;;
49590;SDS011;35496;-21.974;-46.800;2023-09-19T13:41:56;5.25;;;4.45;;
49590;SDS011;35496;-21.974;-46.800;2023-09-19T13:44:22;8.68;;;4.13;;
49590;SDS011;35496;-21.974;-46.800;2023-09-19T13:46:48;11.10;;;4.57;;
49590;SDS011;35496;-21.974;-46.800;2023-09-19T13:49:14;13.07;;;4.75;;
49590;SDS011;35496;-21.974;-46.800;2023-09-19T13:51:41;7.63;;;4.72;;
49590;SDS011;35496;-21.974;-46.800;2023-09-19T13:54:09;9.15;;;4.75;;
49590;SDS011;35496;-21.974;-46.800;2023-09-19T13:56:37;10.60;;;4.68;;
49590;SDS011;35496;-21.974;-46.800;2023-09-19T13:59:04;14.65;;;4.63;;
49590;SDS011;35496;-21.974;-46.800;2023-09-19T14:01:30;10.23;;;5.45;;
49590;SDS011;35496;-21.974;-46.800;2023-09-19T14:03:56;6.85;;;4.75;;
49590;SDS011;35496;-21.974;-46.800;2023-09-19T14:06:22;14.95;;;4.95;;
49590;SDS011;35496;-21.974;-46.800;2023-09-19T14:08:48;11.10;;;5.03;;
49590;SDS011;35496;-21.974;-46.800;2023-09-19T14:11:15;8.80;;;4.03;;
49590;SDS011;35496;-21.974;-46.800;2023-09-19T14:13:42;11.65;;;5.28;;
49590;SDS011;35496;-21.974;-46.800;2023-09-19T14:16:12;7.55;;;4.10;;
49590;SDS011;35496;-21.974;-46.800;2023-09-19T14:18:38;9.00;;;4.05;;
49590;SDS011;35496;-21.974;-46.800;2023-09-19T14:21:05;9.00;;;4.45;;
49590;SDS011;35496;-21.974;-46.800;2023-09-19T14:23:35;11.70;;;5.75;;
49590;SDS011;35496;-21.974;-46.800;2023-09-19T14:26:01;7.63;;;4.05;;
49590;SDS011;35496;-21.974;-46.800;2023-09-19T14:28:27;8.75;;;4.22;;
49590;SDS011;35496;-21.974;-46.800;2023-09-19T14:30:55;4.93;;;4.15;;
49590;SDS011;35496;-21.974;-46.800;2023-09-19T14:33:21;3.88;;;3.45;;
49590;SDS011;35496;-21.974;-46.800;2023-09-19T14:35:47;5.85;;;3.35;;
49590;SDS011;35496;-21.974;-46.800;2023-09-19T14:38:14;7.60;;;4.32;;
49590;SDS011;35496;-21.974;-46.800;2023-09-19T14:40:40;6.32;;;4.20;;
49590;SDS011;35496;-21.974;-46.800;2023-09-19T14:43:07;4.13;;;3.67;;
49590;SDS011;35496;-21.974;-46.800;2023-09-19T14:45:35;7.68;;;3.78;;
49590;SDS011;35496;-21.974;-46.800;2023-09-19T14:48:01;4.53;;;3.28;;
49590;SDS011;35496;-21.974;-46.800;2023-09-19T14:50:30;8.68;;;3.45;;
49590;SDS011;35496;-21.974;-46.800;2023-09-19T14:52:56;5.85;;;3.25;;
49590;SDS011;35496;-21.974;-46.800;2023-09-19T14:55:23;6.00;;;4.00;;
49590;SDS011;35496;-21.974;-46.800;2023-09-19T14:57:49;6.90;;;4.05;;
49590;SDS011;35496;-21.974;-46.800;2023-09-19T15:00:17;4.68;;;3.08;;
49590;SDS011;35496;-21.974;-46.800;2023-09-19T15:02:45;10.23;;;4.13;;
49590;SDS011;35496;-21.974;-46.800;2023-09-19T15:05:13;4.32;;;3.08;;
49590;SDS011;35496;-21.974;-46.800;2023-09-19T15:07:41;5.53;;;3.40;;
49590;SDS011;35496;-21.974;-46.800;2023-09-19T15:10:07;9.63;;;3.47;;
49590;SDS011;35496;-21.974;-46.800;2023-09-19T15:12:35;3.25;;;2.80;;
49590;SDS011;35496;-21.974;-46.800;2023-09-19T15:15:04;3.47;;;2.13;;
49590;SDS011;35496;-21.974;-46.800;2023-09-19T15:17:32;3.38;;;2.85;;